Latest Weather Observations for Charlton

IDV60801

Issued at 5:05 pm EST Monday 1 September 2014 (issued every 30 minutes, with the page automatically refreshed every 10 minutes)

About weather observations | Map of weather stations | Latest weather observations for VIC | Other Formats
Station Details ID: 080128 Name: CHARLTON Lat: -36.28 Lon: 143.33 Height: 131.7 m
Data from the previous 72 hours. | See also: Recent months at Charlton
Date/Time
EST
Temp
°C
App
Temp
°C
Dew
Point
Rel
Hum
%
Delta-T
°C
Wind Press
QNH
hPa
Press
MSL
hPa
Rain
since 9 am
mm
Dir
 
Spd
km/h
Gust
km/h
Spd
kts
Gust
kts
01/05:00pm 9.3 7.3 8.8 97 0.2 SSW 9 17 5 9 1010.8 1010.8 2.4
01/04:30pm 10.0 6.3 7.8 86 1.1 SW 17 32 9 17 1010.8 1010.8 1.6
01/04:00pm 13.2 10.7 11.1 87 1.1 WNW 15 24 8 13 1009.9 1010.0 1.6
01/03:30pm 12.8 10.3 10.9 88 1.0 WNW 15 22 8 12 1009.5 1009.6 1.6
01/03:00pm 12.5 10.0 11.2 92 0.7 WNW 15 22 8 12 1009.6 1009.7 1.6
01/02:30pm 12.4 10.4 11.5 94 0.5 WNW 13 19 7 10 1009.7 1009.8 1.6
01/02:00pm 12.2 10.2 11.4 95 0.4 NW 13 19 7 10 1009.8 1009.9 1.6
01/01:30pm 12.5 10.5 11.6 94 0.5 WNW 13 20 7 11 1010.1 1010.2 1.4
01/01:00pm 12.4 9.5 11.0 91 0.7 WNW 17 26 9 14 1010.3 1010.4 1.4
01/12:30pm 12.3 10.2 11.2 93 0.6 WNW 13 20 7 11 1010.3 1010.4 1.4
01/12:00pm 12.2 10.0 10.8 91 0.7 WNW 13 20 7 11 1010.9 1010.9 1.4
01/11:30am 12.3 9.8 11.0 92 0.7 W 15 24 8 13 1011.1 1011.1 1.2
01/11:00am 12.0 10.4 11.7 98 0.2 W 11 17 6 9 1010.5 1010.5 1.2
01/10:30am 11.9 10.7 11.7 99 0.1 WNW 9 17 5 9 1010.7 1010.7 1.2
01/10:00am 11.6 10.7 11.4 99 0.1 NW 7 11 4 6 1010.7 1010.7 0.8
01/09:30am 11.4 10.5 10.5 94 0.5 W 6 9 3 5 1010.6 1010.7 0.4
01/09:00am 11.6 10.1 9.2 85 1.2 WSW 7 9 4 5 1010.6 1010.7 0.0
01/08:30am 12.7 9.5 6.7 67 2.9 W 13 19 7 10 1010.8 1010.9 0.0
01/08:00am 13.2 10.0 3.0 50 4.6 W 9 15 5 8 1010.2 1010.4 0.0
01/07:30am 13.3 9.9 1.9 46 5.0 W 9 13 5 7 1010.0 1010.2 0.0
01/07:00am 13.2 9.7 1.2 44 5.2 WNW 9 13 5 7 1009.6 1009.8 0.0
01/06:30am 13.8 10.7 1.1 42 5.5 NNW 7 9 4 5 1008.9 1009.1 0.0
01/06:00am 14.7 10.8 0.9 39 6.0 NW 11 17 6 9 1009.1 1009.3 0.0
01/05:30am 15.1 11.2 0.9 38 6.2 NNW 11 19 6 10 1009.3 1009.5 0.0
01/05:00am 15.5 11.5 0.5 36 6.5 NW 11 19 6 10 1009.2 1009.4 0.0
01/04:30am 16.2 11.4 0.3 34 6.9 NNW 15 28 8 15 1009.1 1009.3 0.0
01/04:00am 16.6 11.5 0.7 34 7.0 N 17 28 9 15 1008.7 1008.9 0.0
01/03:30am 16.5 11.4 0.6 34 6.9 N 17 28 9 15 1008.8 1009.0 0.0
01/03:00am 15.3 11.3 0.7 37 6.3 N 11 20 6 11 1009.1 1009.3 0.0
01/02:30am 15.5 10.7 0.5 36 6.5 NNE 15 20 8 11 1008.9 1009.1 0.0
01/02:00am 16.7 11.9 0.4 33 7.1 N 15 28 8 15 1009.2 1009.4 0.0
01/01:30am 16.8 12.0 0.0 32 7.3 N 15 22 8 12 1010.2 1010.4 0.0
01/01:00am 17.2 12.3 -0.5 30 7.6 N 15 30 8 16 1010.3 1010.5 0.0
01/12:30am 17.4 12.1 -0.3 30 7.6 N 17 28 9 15 1010.5 1010.6 0.0
01/12:00am 17.3 12.1 0.0 31 7.5 N 17 24 9 13 1011.1 1011.2 0.0
 
Date/Time
EST
Temp
°C
App
Temp
°C
Dew
Point
Rel
Hum
%
Delta-T
°C
Wind Press
QNH
hPa
Press
MSL
hPa
Rain
since 9 am
mm
Dir
 
Spd
km/h
Gust
km/h
Spd
kts
Gust
kts
31/11:30pm 15.9 12.0 0.9 36 6.6 N 11 15 6 8 1011.4 1011.5 0.0
31/11:00pm 15.6 12.1 1.3 38 6.3 N 9 13 5 7 1011.9 1012.0 0.0
31/10:30pm 16.0 12.1 1.3 37 6.5 NNE 11 15 6 8 1012.0 1012.1 0.0
31/10:00pm 16.4 11.4 1.3 36 6.7 NNE 17 20 9 11 1011.6 1011.7 0.0
31/09:30pm 16.4 11.6 0.5 34 6.9 NNE 15 20 8 11 1011.5 1011.6 0.0
31/09:00pm 16.8 12.3 0.0 32 7.3 NE 13 17 7 9 1012.4 1012.5 0.0
31/08:30pm 17.5 13.4 -0.2 30 7.7 NNE 11 15 6 8 1012.8 1012.9 0.0
31/08:00pm 18.4 14.3 -0.4 28 8.2 NNE 11 15 6 8 1012.8 1012.9 0.0
31/07:30pm 18.9 14.8 -0.5 27 8.5 N 11 17 6 9 1012.9 1013.0 0.0
31/07:00pm 19.6 15.5 -0.4 26 8.8 N 11 20 6 11 1013.2 1013.3 0.0
31/06:30pm 19.7 16.0 0.2 27 8.7 N 9 15 5 8 1013.3 1013.4 0.0
31/06:00pm 20.8 16.7 0.1 25 9.3 N 11 15 6 8 1012.9 1013.0 0.0
31/05:30pm 21.4 16.9 0.0 24 9.6 N 13 19 7 10 1012.9 1013.0 0.0
31/05:00pm 21.9 16.7 0.4 24 9.8 N 17 26 9 14 1013.0 1013.1 0.0
31/04:30pm 22.6 17.1 0.4 23 10.2 NNW 19 28 10 15 1013.3 1013.4 0.0
31/04:00pm 23.3 18.8 2.2 25 10.1 NNW 15 26 8 14 1013.3 1013.4 0.0
31/03:30pm 22.9 17.4 1.8 25 9.9 NNW 20 30 11 16 1013.6 1013.7 0.0
31/03:00pm 23.1 17.6 2.0 25 10.0 NNW 20 32 11 17 1013.8 1014.0 0.0
31/02:30pm 23.0 17.5 1.9 25 10.0 N 20 37 11 20 1014.0 1014.2 0.0
31/02:00pm 23.4 18.5 2.3 25 10.1 NNW 17 24 9 13 1014.5 1014.7 0.0
31/01:30pm 22.9 18.3 1.8 25 9.9 N 15 24 8 13 1015.0 1015.2 0.0
31/01:00pm 22.3 18.4 3.4 29 9.1 N 13 22 7 12 1015.6 1015.8 0.0
31/12:30pm 21.8 17.9 3.5 30 8.8 N 13 20 7 11 1016.1 1016.3 0.0
31/12:00pm 21.6 17.5 4.2 32 8.5 NNE 15 20 8 11 1016.5 1016.7 0.0
31/11:30am 21.1 16.9 3.8 32 8.4 NNE 15 20 8 11 1017.1 1017.3 0.0
31/11:00am 19.4 15.2 4.0 36 7.4 NE 15 24 8 13 1017.6 1017.8 0.0
31/10:30am 17.9 14.3 4.8 42 6.3 NE 13 20 7 11 1017.9 1018.1 0.0
31/10:00am 15.9 11.7 4.0 45 5.5 NNE 15 20 8 11 1018.6 1018.7 0.0
31/09:30am 14.4 10.5 3.2 47 5.1 NNE 13 19 7 10 1018.9 1019.0 0.0
31/09:00am 12.8 8.0 2.6 50 4.5 NNE 17 28 9 15 1018.9 1019.0 0.0
31/08:30am 12.4 8.5 3.4 54 4.0 NNE 13 19 7 10 1019.2 1019.3 0.0
31/08:00am 11.3 7.9 3.8 60 3.3 NNE 11 19 6 10 1019.2 1019.3 0.0
31/07:30am 10.2 6.3 3.5 63 2.9 NE 13 20 7 11 1019.1 1019.2 0.0
31/07:00am 9.5 6.0 3.5 66 2.6 NE 11 19 6 10 1019.1 1019.2 0.0
31/06:30am 9.1 6.0 3.5 68 2.4 NE 9 13 5 7 1018.9 1019.0 0.0
31/06:00am 8.7 5.6 3.7 71 2.2 NE 9 11 5 6 1018.8 1018.9 0.0
31/05:30am 9.2 6.2 4.0 70 2.3 NE 9 13 5 7 1018.6 1018.7 0.0
31/05:00am 9.3 6.3 4.3 71 2.2 NE 9 17 5 9 1018.5 1018.6 0.0
31/04:30am 9.7 6.4 4.5 70 2.3 NE 11 15 6 8 1018.5 1018.6 0.0
31/04:00am 9.4 6.9 4.6 72 2.1 NE 7 11 4 6 1018.5 1018.6 0.0
31/03:30am 9.8 7.0 5.0 72 2.2 NE 9 13 5 7 1018.6 1018.7 0.0
31/03:00am 9.7 7.0 5.5 75 1.9 NE 9 13 5 7 1018.9 1019.0 0.0
31/02:30am 8.7 6.3 5.3 79 1.5 ENE 7 9 4 5 1019.0 1019.1 0.0
31/02:00am 9.4 7.1 5.8 78 1.7 ENE 7 7 4 4 1019.4 1019.5 0.0
31/01:30am 10.7 8.1 6.3 74 2.1 ENE 9 13 5 7 1019.7 1019.8 0.0
31/01:00am 10.9 8.4 6.6 75 2.0 ENE 9 13 5 7 1019.9 1020.0 0.0
31/12:30am 10.3 7.8 6.6 78 1.7 ENE 9 13 5 7 1020.2 1020.4 0.0
31/12:00am 7.1 4.7 5.3 88 0.8 ENE 7 9 4 5 1020.4 1020.6 0.0
 
Date/Time
EST
Temp
°C
App
Temp
°C
Dew
Point
Rel
Hum
%
Delta-T
°C
Wind Press
QNH
hPa
Press
MSL
hPa
Rain
since 9 am
mm
Dir
 
Spd
km/h
Gust
km/h
Spd
kts
Gust
kts
30/11:30pm 5.6 4.1 3.1 84 1.0 CALM 0 0 0 0 1020.7 1020.9 0.0
30/11:00pm 6.0 4.5 2.8 80 1.3 CALM 0 0 0 0 1020.9 1021.1 0.0
30/10:30pm 6.6 5.2 3.4 80 1.4 CALM 0 0 0 0 1021.0 1021.2 0.0
30/10:00pm 7.4 6.0 3.5 76 1.7 CALM 0 0 0 0 1021.1 1021.3 0.0
30/09:30pm 7.5 6.0 3.2 74 1.8 CALM 0 0 0 0 1021.3 1021.5 0.0
30/09:00pm 8.5 7.2 3.9 73 2.0 CALM 0 0 0 0 1021.5 1021.7 0.0
30/08:30pm 9.1 7.7 3.7 69 2.4 CALM 0 0 0 0 1021.5 1021.7 0.0
30/08:00pm 11.1 9.4 4.1 62 3.1 NE 2 6 1 3 1021.4 1021.6 0.0
30/07:30pm 13.2 10.9 4.9 57 3.9 NE 6 7 3 4 1021.2 1021.4 0.0
30/07:00pm 14.8 12.5 4.8 51 4.7 ENE 6 7 3 4 1021.1 1021.3 0.0
30/06:30pm 15.7 13.3 4.1 46 5.4 E 6 7 3 4 1020.9 1021.1 0.0
30/06:00pm 18.3 15.8 3.8 38 6.8 ENE 6 9 3 5 1020.9 1021.1 0.0
30/05:30pm 20.1 17.5 3.3 33 8.0 E 6 7 3 4 1020.7 1020.9 0.0
30/05:00pm 21.0 17.9 3.7 32 8.3 ENE 9 11 5 6 1020.8 1021.0 0.0
30/04:30pm 21.4 18.9 3.6 31 8.6 NNE 6 11 3 6 1020.8 1021.0 0.0
30/04:00pm 21.3 18.6 3.5 31 8.5 NNE 7 13 4 7 1020.9 1021.1 0.0
30/03:30pm 21.4 18.7 3.6 31 8.6 N 7 13 4 7 1021.1 1021.3 0.0
30/03:00pm 21.4 18.4 4.0 32 8.4 N 9 15 5 8 1021.3 1021.5 0.0
30/02:30pm 21.5 18.6 4.6 33 8.3 NE 9 17 5 9 1021.6 1021.8 0.0
30/02:00pm 21.1 18.1 4.2 33 8.2 N 9 15 5 8 1022.0 1022.2 0.0
30/01:30pm 19.9 16.6 4.8 37 7.4 NNE 11 19 6 10 1022.5 1022.7 0.0
30/01:00pm 19.6 16.0 6.7 43 6.5 NE 15 24 8 13 1022.9 1023.1 0.0
30/12:30pm 19.1 15.2 6.9 45 6.2 ENE 17 30 9 16 1023.4 1023.6 0.0
30/12:00pm 18.6 14.8 7.7 49 5.6 ENE 17 26 9 14 1023.8 1024.0 0.0
30/11:30am 17.8 14.2 8.4 54 4.9 NNE 17 24 9 13 1024.4 1024.6 0.0
30/11:00am 16.5 12.8 8.0 57 4.3 NE 17 24 9 13 1024.7 1024.9 0.0
30/10:30am 16.5 13.3 8.5 59 4.1 NE 15 22 8 12 1025.0 1025.2 0.0
30/10:00am 15.5 12.2 8.0 61 3.8 NE 15 20 8 11 1025.3 1025.5 0.0
30/09:30am 14.6 11.9 8.8 68 3.0 ENE 13 17 7 9 1025.5 1025.7 0.0
30/09:00am 12.5 10.6 9.0 79 1.8 E 9 15 5 8 1025.6 1025.8 0.0
30/08:30am 9.4 8.3 8.3 93 0.5 ESE 4 6 2 3 1025.7 1025.9 0.0
30/08:00am 6.3 4.7 6.3 100 0.0 SE 4 6 2 3 1025.8 1026.0 0.0
30/07:30am 3.7 1.2 3.6 99 0.0 SE 6 7 3 4 1025.6 1025.8 0.0
30/07:00am 2.9 1.4 2.8 99 0.0 CALM 0 0 0 0 1025.5 1025.7 0.0
30/06:30am 3.1 1.2 3.0 99 0.0 SSE 2 6 1 3 1025.2 1025.4 0.0
30/06:00am 2.7 0.0 2.6 99 0.0 S 6 7 3 4 1024.9 1025.1 0.0
30/05:30am 2.4 -0.4 2.3 99 0.0 S 6 7 3 4 1024.8 1025.0 0.0
30/05:00am 2.6 -0.1 2.5 99 0.0 SSE 6 7 3 4 1024.7 1024.9 0.0
30/04:30am 3.2 1.7 3.1 99 0.0 CALM 0 0 0 0 1024.9 1025.1 0.0
30/04:00am 3.4 2.0 3.3 99 0.0 CALM 0 4 0 2 1024.8 1025.0 0.0
30/03:30am 3.4 0.8 3.3 99 0.0 SSE 6 7 3 4 1024.9 1025.1 0.0
30/03:00am 3.6 1.1 3.5 99 0.0 SSE 6 7 3 4 1025.0 1025.2 0.0
30/02:30am 3.6 1.4 3.2 97 0.2 SE 4 7 2 4 1025.2 1025.4 0.0
30/02:00am 4.3 2.2 3.9 97 0.2 S 4 6 2 3 1025.4 1025.6 0.0
30/01:30am 4.7 2.6 4.0 95 0.3 SSE 4 7 2 4 1025.5 1025.7 0.0
30/01:00am 4.9 2.4 3.9 93 0.4 SSE 6 7 3 4 1025.6 1025.8 0.0
30/12:30am 5.8 4.7 4.9 94 0.4 CALM 0 0 0 0 1025.7 1025.9 0.0
30/12:00am 6.1 4.9 4.6 90 0.6 CALM 0 0 0 0 1025.8 1026.0 0.0
 
Date/Time
EST
Temp
°C
App
Temp
°C
Dew
Point
Rel
Hum
%
Delta-T
°C
Wind Press
QNH
hPa
Press
MSL
hPa
Rain
since 9 am
mm
Dir
 
Spd
km/h
Gust
km/h
Spd
kts
Gust
kts
29/11:30pm 6.6 4.3 4.6 87 0.9 S 6 6 3 3 1025.9 1026.1 0.0
29/11:00pm 8.1 5.7 5.4 83 1.2 SSE 7 11 4 6 1025.9 1026.1 0.0
29/10:30pm 9.1 6.1 6.2 82 1.3 SE 11 15 6 8 1026.0 1026.2 0.0
29/10:00pm 8.6 6.3 5.5 81 1.4 SE 7 11 4 6 1026.1 1026.3 0.0
29/09:30pm 8.8 6.3 4.6 75 1.9 SE 7 11 4 6 1025.9 1026.1 0.0
29/09:00pm 10.4 8.0 5.2 70 2.4 SE 7 11 4 6 1025.8 1026.0 0.0
29/08:30pm 11.3 8.6 5.6 68 2.7 SE 9 13 5 7 1025.7 1025.9 0.0
29/08:00pm 11.0 8.8 5.5 69 2.5 SSE 6 7 3 4 1025.6 1025.8 0.0
29/07:30pm 12.0 9.6 5.2 63 3.2 S 7 11 4 6 1025.5 1025.7 0.0
29/07:00pm 13.4 11.3 5.8 60 3.6 S 6 9 3 5 1025.3 1025.5 0.0
29/06:30pm 14.8 12.8 6.1 56 4.2 S 6 9 3 5 1025.0 1025.2 0.0
29/06:00pm 17.1 14.2 6.3 49 5.3 SSE 11 13 6 7 1025.0 1025.2 0.0
29/05:30pm 19.4 16.6 6.8 44 6.4 SSE 11 15 6 8 1024.8 1025.0 0.0

Other Formats:

Comma delimited format used in spreadsheet applications
http://www.bom.gov.au/fwo/IDV60801/IDV60801.94839.axf

JavaScript Object Notation format (JSON) in row-major order
http://www.bom.gov.au/fwo/IDV60801/IDV60801.94839.json